sensor_id;sensor_type;location;lat;lon;timestamp;P1;durP1;ratioP1;P2;durP2;ratioP2
31920;SDS011;66282;52.090;4.400;2022-12-26T00:01:21;3.67;;;1.87;;
31920;SDS011;66282;52.090;4.400;2022-12-26T00:03:46;5.55;;;2.72;;
31920;SDS011;66282;52.090;4.400;2022-12-26T00:06:12;3.93;;;2.40;;
31920;SDS011;66282;52.090;4.400;2022-12-26T00:08:38;3.90;;;2.28;;
31920;SDS011;66282;52.090;4.400;2022-12-26T00:11:03;2.67;;;1.80;;
31920;SDS011;66282;52.090;4.400;2022-12-26T00:13:28;4.22;;;2.17;;
31920;SDS011;66282;52.090;4.400;2022-12-26T00:15:53;3.50;;;2.13;;
31920;SDS011;66282;52.090;4.400;2022-12-26T00:18:18;4.00;;;2.20;;
31920;SDS011;66282;52.090;4.400;2022-12-26T00:20:44;3.23;;;2.07;;
31920;SDS011;66282;52.090;4.400;2022-12-26T00:23:09;3.23;;;1.60;;
31920;SDS011;66282;52.090;4.400;2022-12-26T00:25:34;3.60;;;2.03;;
31920;SDS011;66282;52.090;4.400;2022-12-26T00:27:59;5.03;;;2.33;;
31920;SDS011;66282;52.090;4.400;2022-12-26T00:30:25;2.53;;;1.60;;
31920;SDS011;66282;52.090;4.400;2022-12-26T00:32:50;3.83;;;2.17;;
31920;SDS011;66282;52.090;4.400;2022-12-26T00:35:15;3.80;;;2.00;;
31920;SDS011;66282;52.090;4.400;2022-12-26T00:37:40;5.10;;;2.40;;
31920;SDS011;66282;52.090;4.400;2022-12-26T00:40:06;3.87;;;2.10;;
31920;SDS011;66282;52.090;4.400;2022-12-26T00:42:31;3.42;;;2.10;;
31920;SDS011;66282;52.090;4.400;2022-12-26T00:44:57;3.20;;;1.87;;
31920;SDS011;66282;52.090;4.400;2022-12-26T00:47:22;4.07;;;2.10;;
31920;SDS011;66282;52.090;4.400;2022-12-26T00:49:47;4.00;;;2.00;;
31920;SDS011;66282;52.090;4.400;2022-12-26T00:52:12;3.13;;;1.90;;
31920;SDS011;66282;52.090;4.400;2022-12-26T00:54:37;3.83;;;1.93;;
31920;SDS011;66282;52.090;4.400;2022-12-26T00:57:03;3.80;;;2.37;;
31920;SDS011;66282;52.090;4.400;2022-12-26T00:59:28;4.93;;;2.00;;
31920;SDS011;66282;52.090;4.400;2022-12-26T01:01:53;3.50;;;1.67;;
31920;SDS011;66282;52.090;4.400;2022-12-26T01:04:18;4.07;;;2.47;;
31920;SDS011;66282;52.090;4.400;2022-12-26T01:06:43;3.03;;;1.77;;
31920;SDS011;66282;52.090;4.400;2022-12-26T01:09:09;3.10;;;2.00;;
31920;SDS011;66282;52.090;4.400;2022-12-26T01:11:36;5.05;;;2.40;;
31920;SDS011;66282;52.090;4.400;2022-12-26T01:14:04;4.35;;;2.45;;
31920;SDS011;66282;52.090;4.400;2022-12-26T01:16:30;3.10;;;1.90;;
31920;SDS011;66282;52.090;4.400;2022-12-26T01:18:55;5.17;;;2.57;;
31920;SDS011;66282;52.090;4.400;2022-12-26T01:21:20;4.23;;;2.50;;
31920;SDS011;66282;52.090;4.400;2022-12-26T01:23:45;3.53;;;2.17;;
31920;SDS011;66282;52.090;4.400;2022-12-26T01:26:11;6.63;;;2.53;;
31920;SDS011;66282;52.090;4.400;2022-12-26T01:28:36;3.17;;;1.90;;
31920;SDS011;66282;52.090;4.400;2022-12-26T01:31:02;2.87;;;1.77;;
31920;SDS011;66282;52.090;4.400;2022-12-26T01:33:27;2.38;;;1.58;;
31920;SDS011;66282;52.090;4.400;2022-12-26T01:35:52;3.67;;;1.87;;
31920;SDS011;66282;52.090;4.400;2022-12-26T01:38:18;3.25;;;1.80;;
31920;SDS011;66282;52.090;4.400;2022-12-26T01:40:43;4.40;;;2.15;;
31920;SDS011;66282;52.090;4.400;2022-12-26T01:43:12;3.33;;;2.10;;
31920;SDS011;66282;52.090;4.400;2022-12-26T01:45:38;5.20;;;2.30;;
31920;SDS011;66282;52.090;4.400;2022-12-26T01:52:53;3.63;;;2.10;;
31920;SDS011;66282;52.090;4.400;2022-12-26T01:55:19;4.95;;;2.35;;
31920;SDS011;66282;52.090;4.400;2022-12-26T01:57:52;4.18;;;2.28;;
31920;SDS011;66282;52.090;4.400;2022-12-26T02:00:18;3.75;;;2.08;;
31920;SDS011;66282;52.090;4.400;2022-12-26T02:02:43;3.78;;;1.80;;
31920;SDS011;66282;52.090;4.400;2022-12-26T02:05:28;3.08;;;1.70;;
31920;SDS011;66282;52.090;4.400;2022-12-26T02:08:04;3.60;;;1.60;;
31920;SDS011;66282;52.090;4.400;2022-12-26T02:10:30;3.80;;;1.85;;
31920;SDS011;66282;52.090;4.400;2022-12-26T02:12:57;3.58;;;2.10;;
31920;SDS011;66282;52.090;4.400;2022-12-26T02:15:22;3.50;;;1.63;;
31920;SDS011;66282;52.090;4.400;2022-12-26T02:17:47;5.10;;;2.70;;
31920;SDS011;66282;52.090;4.400;2022-12-26T02:23:07;3.85;;;2.00;;
31920;SDS011;66282;52.090;4.400;2022-12-26T02:25:45;3.53;;;2.03;;
31920;SDS011;66282;52.090;4.400;2022-12-26T02:30:53;3.85;;;1.98;;
31920;SDS011;66282;52.090;4.400;2022-12-26T02:33:26;3.33;;;1.80;;
31920;SDS011;66282;52.090;4.400;2022-12-26T02:36:03;4.63;;;2.20;;
31920;SDS011;66282;52.090;4.400;2022-12-26T02:41:19;3.58;;;2.00;;
31920;SDS011;66282;52.090;4.400;2022-12-26T02:49:25;4.25;;;2.15;;
31920;SDS011;66282;52.090;4.400;2022-12-26T02:51:58;3.05;;;1.42;;
31920;SDS011;66282;52.090;4.400;2022-12-26T02:54:53;4.82;;;1.85;;
31920;SDS011;66282;52.090;4.400;2022-12-26T03:00:31;3.00;;;1.48;;
31920;SDS011;66282;52.090;4.400;2022-12-26T03:03:17;2.85;;;1.75;;
31920;SDS011;66282;52.090;4.400;2022-12-26T03:08:51;1.92;;;1.30;;
31920;SDS011;66282;52.090;4.400;2022-12-26T03:11:38;3.33;;;1.90;;
31920;SDS011;66282;52.090;4.400;2022-12-26T03:14:24;3.67;;;1.88;;
31920;SDS011;66282;52.090;4.400;2022-12-26T03:16:51;4.97;;;2.35;;
31920;SDS011;66282;52.090;4.400;2022-12-26T03:19:37;2.33;;;1.55;;
31920;SDS011;66282;52.090;4.400;2022-12-26T03:22:22;4.35;;;2.20;;
31920;SDS011;66282;52.090;4.400;2022-12-26T03:24:59;4.20;;;1.70;;
31920;SDS011;66282;52.090;4.400;2022-12-26T03:27:44;2.28;;;1.40;;
31920;SDS011;66282;52.090;4.400;2022-12-26T03:30:10;3.72;;;1.80;;
31920;SDS011;66282;52.090;4.400;2022-12-26T03:32:54;2.63;;;1.70;;
31920;SDS011;66282;52.090;4.400;2022-12-26T03:35:20;2.00;;;1.48;;
31920;SDS011;66282;52.090;4.400;2022-12-26T03:37:48;2.33;;;1.23;;
31920;SDS011;66282;52.090;4.400;2022-12-26T03:49:11;2.47;;;1.25;;
31920;SDS011;66282;52.090;4.400;2022-12-26T03:57:29;2.90;;;1.42;;
31920;SDS011;66282;52.090;4.400;2022-12-26T04:00:15;2.53;;;1.50;;
31920;SDS011;66282;52.090;4.400;2022-12-26T04:03:01;3.47;;;1.73;;
31920;SDS011;66282;52.090;4.400;2022-12-26T04:05:48;2.85;;;1.17;;
31920;SDS011;66282;52.090;4.400;2022-12-26T04:11:49;3.35;;;1.85;;
31920;SDS011;66282;52.090;4.400;2022-12-26T04:14:42;3.15;;;1.90;;
31920;SDS011;66282;52.090;4.400;2022-12-26T04:23:12;2.45;;;1.33;;
31920;SDS011;66282;52.090;4.400;2022-12-26T04:26:01;2.22;;;1.40;;
31920;SDS011;66282;52.090;4.400;2022-12-26T04:28:47;1.50;;;1.00;;
31920;SDS011;66282;52.090;4.400;2022-12-26T04:34:29;1.60;;;1.08;;
31920;SDS011;66282;52.090;4.400;2022-12-26T04:37:19;2.13;;;1.30;;
31920;SDS011;66282;52.090;4.400;2022-12-26T04:40:05;1.67;;;1.00;;
31920;SDS011;66282;52.090;4.400;2022-12-26T04:42:51;1.77;;;1.10;;
31920;SDS011;66282;52.090;4.400;2022-12-26T04:45:35;2.20;;;1.15;;
31920;SDS011;66282;52.090;4.400;2022-12-26T04:48:00;3.38;;;1.35;;
31920;SDS011;66282;52.090;4.400;2022-12-26T04:50:51;2.13;;;1.00;;
31920;SDS011;66282;52.090;4.400;2022-12-26T04:53:16;2.00;;;1.20;;
31920;SDS011;66282;52.090;4.400;2022-12-26T04:55:42;1.88;;;1.20;;
31920;SDS011;66282;52.090;4.400;2022-12-26T04:58:07;2.83;;;1.38;;
31920;SDS011;66282;52.090;4.400;2022-12-26T05:00:32;2.00;;;0.93;;
31920;SDS011;66282;52.090;4.400;2022-12-26T05:02:57;3.47;;;1.17;;
31920;SDS011;66282;52.090;4.400;2022-12-26T05:05:42;2.10;;;1.20;;
31920;SDS011;66282;52.090;4.400;2022-12-26T05:11:21;2.92;;;1.20;;
31920;SDS011;66282;52.090;4.400;2022-12-26T05:13:46;2.35;;;1.08;;
31920;SDS011;66282;52.090;4.400;2022-12-26T05:16:12;1.45;;;0.98;;
31920;SDS011;66282;52.090;4.400;2022-12-26T05:18:56;4.03;;;1.00;;
31920;SDS011;66282;52.090;4.400;2022-12-26T05:21:40;3.38;;;1.08;;
31920;SDS011;66282;52.090;4.400;2022-12-26T05:24:24;2.00;;;0.90;;
31920;SDS011;66282;52.090;4.400;2022-12-26T05:27:10;1.58;;;0.93;;
31920;SDS011;66282;52.090;4.400;2022-12-26T05:29:56;2.65;;;0.93;;
31920;SDS011;66282;52.090;4.400;2022-12-26T05:32:21;2.47;;;0.90;;
31920;SDS011;66282;52.090;4.400;2022-12-26T05:35:05;1.85;;;1.10;;
31920;SDS011;66282;52.090;4.400;2022-12-26T05:37:30;1.48;;;0.85;;
31920;SDS011;66282;52.090;4.400;2022-12-26T05:39:55;2.33;;;0.83;;
31920;SDS011;66282;52.090;4.400;2022-12-26T05:42:20;1.77;;;0.93;;
31920;SDS011;66282;52.090;4.400;2022-12-26T05:44:46;1.50;;;0.87;;
31920;SDS011;66282;52.090;4.400;2022-12-26T05:47:11;1.48;;;1.00;;
31920;SDS011;66282;52.090;4.400;2022-12-26T05:49:36;1.53;;;0.87;;
31920;SDS011;66282;52.090;4.400;2022-12-26T05:52:02;1.60;;;0.80;;
31920;SDS011;66282;52.090;4.400;2022-12-26T05:54:27;1.70;;;0.90;;
31920;SDS011;66282;52.090;4.400;2022-12-26T05:56:52;1.33;;;0.80;;
31920;SDS011;66282;52.090;4.400;2022-12-26T05:59:17;1.47;;;0.80;;
31920;SDS011;66282;52.090;4.400;2022-12-26T06:01:43;1.37;;;0.80;;
31920;SDS011;66282;52.090;4.400;2022-12-26T06:04:08;1.73;;;0.90;;
31920;SDS011;66282;52.090;4.400;2022-12-26T06:06:33;1.17;;;0.80;;
31920;SDS011;66282;52.090;4.400;2022-12-26T06:08:58;1.57;;;0.90;;
31920;SDS011;66282;52.090;4.400;2022-12-26T06:11:24;1.63;;;0.93;;
31920;SDS011;66282;52.090;4.400;2022-12-26T06:13:50;2.22;;;0.90;;
31920;SDS011;66282;52.090;4.400;2022-12-26T06:16:16;2.10;;;1.00;;
31920;SDS011;66282;52.090;4.400;2022-12-26T06:18:41;1.60;;;0.77;;
31920;SDS011;66282;52.090;4.400;2022-12-26T06:21:11;2.17;;;1.00;;
31920;SDS011;66282;52.090;4.400;2022-12-26T06:23:37;1.98;;;1.10;;
31920;SDS011;66282;52.090;4.400;2022-12-26T06:26:03;1.50;;;0.85;;
31920;SDS011;66282;52.090;4.400;2022-12-26T06:28:28;1.90;;;0.70;;
31920;SDS011;66282;52.090;4.400;2022-12-26T06:31:00;1.17;;;0.90;;
31920;SDS011;66282;52.090;4.400;2022-12-26T06:33:25;4.82;;;1.00;;
31920;SDS011;66282;52.090;4.400;2022-12-26T06:35:50;2.13;;;0.83;;
31920;SDS011;66282;52.090;4.400;2022-12-26T06:38:15;2.10;;;0.90;;
31920;SDS011;66282;52.090;4.400;2022-12-26T06:40:41;1.45;;;0.80;;
31920;SDS011;66282;52.090;4.400;2022-12-26T06:43:06;1.40;;;0.82;;
31920;SDS011;66282;52.090;4.400;2022-12-26T06:45:32;1.20;;;0.70;;
31920;SDS011;66282;52.090;4.400;2022-12-26T06:47:57;1.50;;;0.90;;
31920;SDS011;66282;52.090;4.400;2022-12-26T06:50:23;1.80;;;0.70;;
31920;SDS011;66282;52.090;4.400;2022-12-26T06:52:48;0.98;;;0.60;;
31920;SDS011;66282;52.090;4.400;2022-12-26T06:55:14;2.70;;;1.03;;
31920;SDS011;66282;52.090;4.400;2022-12-26T06:57:39;2.33;;;0.77;;
31920;SDS011;66282;52.090;4.400;2022-12-26T07:00:04;1.63;;;0.70;;
31920;SDS011;66282;52.090;4.400;2022-12-26T07:02:29;1.55;;;0.75;;
31920;SDS011;66282;52.090;4.400;2022-12-26T07:04:55;1.42;;;0.60;;
31920;SDS011;66282;52.090;4.400;2022-12-26T07:07:20;2.17;;;0.80;;
31920;SDS011;66282;52.090;4.400;2022-12-26T07:09:45;3.07;;;0.80;;
31920;SDS011;66282;52.090;4.400;2022-12-26T07:12:10;1.80;;;0.90;;
31920;SDS011;66282;52.090;4.400;2022-12-26T07:14:36;1.33;;;0.70;;
31920;SDS011;66282;52.090;4.400;2022-12-26T07:17:01;0.73;;;0.60;;
31920;SDS011;66282;52.090;4.400;2022-12-26T07:19:26;1.10;;;0.77;;
31920;SDS011;66282;52.090;4.400;2022-12-26T07:21:51;1.70;;;0.87;;
31920;SDS011;66282;52.090;4.400;2022-12-26T07:24:17;1.47;;;0.80;;
31920;SDS011;66282;52.090;4.400;2022-12-26T07:26:43;1.85;;;0.90;;
31920;SDS011;66282;52.090;4.400;2022-12-26T07:29:09;2.88;;;0.90;;
31920;SDS011;66282;52.090;4.400;2022-12-26T07:31:34;1.65;;;0.80;;
31920;SDS011;66282;52.090;4.400;2022-12-26T07:33:59;2.63;;;0.90;;
31920;SDS011;66282;52.090;4.400;2022-12-26T07:36:25;1.33;;;0.80;;
31920;SDS011;66282;52.090;4.400;2022-12-26T07:38:51;2.72;;;1.00;;
31920;SDS011;66282;52.090;4.400;2022-12-26T07:41:16;1.67;;;0.73;;
31920;SDS011;66282;52.090;4.400;2022-12-26T07:44:00;2.17;;;0.82;;
31920;SDS011;66282;52.090;4.400;2022-12-26T07:46:25;1.85;;;0.70;;
31920;SDS011;66282;52.090;4.400;2022-12-26T07:48:50;2.37;;;1.00;;
31920;SDS011;66282;52.090;4.400;2022-12-26T07:51:15;2.87;;;0.90;;
31920;SDS011;66282;52.090;4.400;2022-12-26T07:53:40;1.43;;;0.70;;
31920;SDS011;66282;52.090;4.400;2022-12-26T07:56:06;2.90;;;0.60;;
31920;SDS011;66282;52.090;4.400;2022-12-26T07:58:31;2.25;;;0.93;;
31920;SDS011;66282;52.090;4.400;2022-12-26T08:00:59;2.53;;;0.93;;
31920;SDS011;66282;52.090;4.400;2022-12-26T08:03:24;3.05;;;0.80;;
31920;SDS011;66282;52.090;4.400;2022-12-26T08:05:49;5.77;;;1.23;;
31920;SDS011;66282;52.090;4.400;2022-12-26T08:08:15;2.08;;;0.80;;
31920;SDS011;66282;52.090;4.400;2022-12-26T08:10:40;2.40;;;0.67;;
31920;SDS011;66282;52.090;4.400;2022-12-26T08:13:05;1.20;;;0.57;;
31920;SDS011;66282;52.090;4.400;2022-12-26T08:15:31;2.10;;;0.77;;
31920;SDS011;66282;52.090;4.400;2022-12-26T08:17:56;2.75;;;0.77;;
31920;SDS011;66282;52.090;4.400;2022-12-26T08:20:21;3.25;;;1.08;;
31920;SDS011;66282;52.090;4.400;2022-12-26T08:22:47;2.03;;;0.60;;
31920;SDS011;66282;52.090;4.400;2022-12-26T08:25:12;2.50;;;0.67;;
31920;SDS011;66282;52.090;4.400;2022-12-26T08:27:37;2.33;;;0.60;;
31920;SDS011;66282;52.090;4.400;2022-12-26T08:30:02;1.73;;;0.60;;
31920;SDS011;66282;52.090;4.400;2022-12-26T08:32:28;2.50;;;0.80;;
31920;SDS011;66282;52.090;4.400;2022-12-26T08:34:54;3.97;;;0.80;;
31920;SDS011;66282;52.090;4.400;2022-12-26T08:37:19;1.93;;;0.60;;
31920;SDS011;66282;52.090;4.400;2022-12-26T08:39:44;3.67;;;0.83;;
31920;SDS011;66282;52.090;4.400;2022-12-26T08:42:09;3.70;;;0.70;;
31920;SDS011;66282;52.090;4.400;2022-12-26T08:44:34;6.63;;;0.90;;
31920;SDS011;66282;52.090;4.400;2022-12-26T08:47:00;3.17;;;0.87;;
31920;SDS011;66282;52.090;4.400;2022-12-26T08:49:25;2.03;;;0.80;;
31920;SDS011;66282;52.090;4.400;2022-12-26T08:51:50;4.40;;;1.17;;
31920;SDS011;66282;52.090;4.400;2022-12-26T08:54:15;1.67;;;0.77;;
31920;SDS011;66282;52.090;4.400;2022-12-26T08:56:40;3.23;;;0.80;;
31920;SDS011;66282;52.090;4.400;2022-12-26T08:59:06;5.33;;;0.90;;
31920;SDS011;66282;52.090;4.400;2022-12-26T09:01:31;5.33;;;0.60;;
31920;SDS011;66282;52.090;4.400;2022-12-26T09:03:57;1.38;;;0.55;;
31920;SDS011;66282;52.090;4.400;2022-12-26T09:06:23;1.98;;;0.73;;
31920;SDS011;66282;52.090;4.400;2022-12-26T09:08:48;3.35;;;0.90;;
31920;SDS011;66282;52.090;4.400;2022-12-26T09:11:15;3.40;;;0.68;;
31920;SDS011;66282;52.090;4.400;2022-12-26T09:13:40;2.58;;;0.80;;
31920;SDS011;66282;52.090;4.400;2022-12-26T09:16:07;6.15;;;1.08;;
31920;SDS011;66282;52.090;4.400;2022-12-26T09:18:33;2.28;;;0.73;;
31920;SDS011;66282;52.090;4.400;2022-12-26T09:20:59;1.98;;;0.60;;
31920;SDS011;66282;52.090;4.400;2022-12-26T09:23:25;1.90;;;0.75;;
31920;SDS011;66282;52.090;4.400;2022-12-26T09:25:50;5.35;;;0.85;;
31920;SDS011;66282;52.090;4.400;2022-12-26T09:28:16;3.80;;;0.80;;
31920;SDS011;66282;52.090;4.400;2022-12-26T09:30:41;2.08;;;0.65;;
31920;SDS011;66282;52.090;4.400;2022-12-26T09:33:08;2.05;;;0.57;;
31920;SDS011;66282;52.090;4.400;2022-12-26T09:35:33;3.80;;;0.83;;
31920;SDS011;66282;52.090;4.400;2022-12-26T09:37:58;2.60;;;0.60;;
31920;SDS011;66282;52.090;4.400;2022-12-26T09:40:26;4.67;;;1.00;;
31920;SDS011;66282;52.090;4.400;2022-12-26T09:45:24;2.80;;;0.65;;
31920;SDS011;66282;52.090;4.400;2022-12-26T09:48:03;3.33;;;0.77;;
31920;SDS011;66282;52.090;4.400;2022-12-26T09:50:32;3.42;;;0.60;;
31920;SDS011;66282;52.090;4.400;2022-12-26T09:53:07;6.50;;;0.80;;
31920;SDS011;66282;52.090;4.400;2022-12-26T09:58:44;2.20;;;0.77;;
31920;SDS011;66282;52.090;4.400;2022-12-26T10:00:50;4.65;;;0.80;;
31920;SDS011;66282;52.090;4.400;2022-12-26T10:03:16;2.20;;;0.60;;
31920;SDS011;66282;52.090;4.400;2022-12-26T10:05:46;4.23;;;0.70;;
31920;SDS011;66282;52.090;4.400;2022-12-26T10:10:46;3.50;;;0.60;;
31920;SDS011;66282;52.090;4.400;2022-12-26T10:13:19;2.13;;;0.82;;
31920;SDS011;66282;52.090;4.400;2022-12-26T10:15:54;2.28;;;0.70;;
31920;SDS011;66282;52.090;4.400;2022-12-26T10:23:31;2.05;;;0.80;;
31920;SDS011;66282;52.090;4.400;2022-12-26T10:28:27;2.80;;;0.60;;
31920;SDS011;66282;52.090;4.400;2022-12-26T10:30:54;3.53;;;0.60;;
31920;SDS011;66282;52.090;4.400;2022-12-26T10:33:23;5.65;;;0.90;;
31920;SDS011;66282;52.090;4.400;2022-12-26T10:35:53;3.80;;;0.90;;
31920;SDS011;66282;52.090;4.400;2022-12-26T10:41:05;2.17;;;0.65;;
31920;SDS011;66282;52.090;4.400;2022-12-26T10:43:33;0.75;;;0.45;;
31920;SDS011;66282;52.090;4.400;2022-12-26T10:48:42;4.85;;;0.90;;
31920;SDS011;66282;52.090;4.400;2022-12-26T10:51:08;3.55;;;0.85;;
31920;SDS011;66282;52.090;4.400;2022-12-26T10:53:33;3.38;;;0.70;;
31920;SDS011;66282;52.090;4.400;2022-12-26T10:56:00;2.28;;;0.80;;
31920;SDS011;66282;52.090;4.400;2022-12-26T10:58:32;2.42;;;0.60;;
31920;SDS011;66282;52.090;4.400;2022-12-26T11:04:04;1.45;;;0.60;;
31920;SDS011;66282;52.090;4.400;2022-12-26T11:06:37;2.25;;;0.60;;
31920;SDS011;66282;52.090;4.400;2022-12-26T11:09:03;1.85;;;0.50;;
31920;SDS011;66282;52.090;4.400;2022-12-26T11:11:32;3.25;;;0.65;;
31920;SDS011;66282;52.090;4.400;2022-12-26T11:14:40;1.88;;;0.50;;
31920;SDS011;66282;52.090;4.400;2022-12-26T11:17:08;3.83;;;0.60;;
31920;SDS011;66282;52.090;4.400;2022-12-26T11:19:34;2.05;;;0.88;;
31920;SDS011;66282;52.090;4.400;2022-12-26T11:22:13;2.55;;;0.63;;
31920;SDS011;66282;52.090;4.400;2022-12-26T11:24:39;1.73;;;0.60;;
31920;SDS011;66282;52.090;4.400;2022-12-26T11:27:18;2.10;;;0.80;;
31920;SDS011;66282;52.090;4.400;2022-12-26T11:29:44;2.30;;;0.60;;
31920;SDS011;66282;52.090;4.400;2022-12-26T11:32:13;3.03;;;0.60;;
31920;SDS011;66282;52.090;4.400;2022-12-26T11:34:39;1.95;;;0.52;;
31920;SDS011;66282;52.090;4.400;2022-12-26T11:37:23;2.38;;;0.63;;
31920;SDS011;66282;52.090;4.400;2022-12-26T11:39:49;2.22;;;0.73;;
31920;SDS011;66282;52.090;4.400;2022-12-26T11:42:18;2.67;;;0.60;;
31920;SDS011;66282;52.090;4.400;2022-12-26T11:44:44;1.58;;;0.70;;
31920;SDS011;66282;52.090;4.400;2022-12-26T11:47:13;1.60;;;0.50;;
31920;SDS011;66282;52.090;4.400;2022-12-26T11:53:03;3.60;;;0.60;;
31920;SDS011;66282;52.090;4.400;2022-12-26T11:57:53;1.70;;;0.80;;
31920;SDS011;66282;52.090;4.400;2022-12-26T12:00:19;1.13;;;0.50;;
31920;SDS011;66282;52.090;4.400;2022-12-26T12:02:46;1.10;;;0.50;;
31920;SDS011;66282;52.090;4.400;2022-12-26T12:13:27;2.10;;;0.88;;
31920;SDS011;66282;52.090;4.400;2022-12-26T12:23:46;3.13;;;0.60;;
31920;SDS011;66282;52.090;4.400;2022-12-26T12:26:32;2.65;;;0.77;;
31920;SDS011;66282;52.090;4.400;2022-12-26T12:36:48;2.17;;;0.63;;
31920;SDS011;66282;52.090;4.400;2022-12-26T12:39:19;3.13;;;0.60;;
31920;SDS011;66282;52.090;4.400;2022-12-26T12:55:06;2.67;;;0.65;;
31920;SDS011;66282;52.090;4.400;2022-12-26T13:00:15;1.73;;;0.70;;
31920;SDS011;66282;52.090;4.400;2022-12-26T13:05:21;1.35;;;0.65;;
31920;SDS011;66282;52.090;4.400;2022-12-26T13:07:55;3.53;;;0.80;;
31920;SDS011;66282;52.090;4.400;2022-12-26T13:10:31;2.22;;;0.85;;
31920;SDS011;66282;52.090;4.400;2022-12-26T13:16:02;1.42;;;0.60;;
31920;SDS011;66282;52.090;4.400;2022-12-26T13:18:31;3.25;;;0.63;;
31920;SDS011;66282;52.090;4.400;2022-12-26T13:20:59;2.45;;;0.50;;
31920;SDS011;66282;52.090;4.400;2022-12-26T13:23:28;2.17;;;0.73;;
31920;SDS011;66282;52.090;4.400;2022-12-26T13:26:15;1.15;;;0.60;;
31920;SDS011;66282;52.090;4.400;2022-12-26T13:28:45;4.53;;;0.55;;
31920;SDS011;66282;52.090;4.400;2022-12-26T13:31:12;4.53;;;0.75;;
31920;SDS011;66282;52.090;4.400;2022-12-26T13:33:37;2.00;;;0.47;;
31920;SDS011;66282;52.090;4.400;2022-12-26T13:36:05;1.67;;;0.68;;
31920;SDS011;66282;52.090;4.400;2022-12-26T13:41:31;1.70;;;0.55;;
31920;SDS011;66282;52.090;4.400;2022-12-26T13:44:24;2.45;;;0.50;;
31920;SDS011;66282;52.090;4.400;2022-12-26T13:49:34;1.70;;;0.50;;
31920;SDS011;66282;52.090;4.400;2022-12-26T13:54:35;1.85;;;0.50;;
31920;SDS011;66282;52.090;4.400;2022-12-26T13:59:35;2.40;;;0.50;;
31920;SDS011;66282;52.090;4.400;2022-12-26T14:02:15;1.73;;;0.50;;
31920;SDS011;66282;52.090;4.400;2022-12-26T14:07:29;2.28;;;0.70;;
31920;SDS011;66282;52.090;4.400;2022-12-26T14:10:17;1.83;;;0.65;;
31920;SDS011;66282;52.090;4.400;2022-12-26T14:33:34;3.58;;;1.35;;
31920;SDS011;66282;52.090;4.400;2022-12-26T14:41:12;1.92;;;0.80;;
31920;SDS011;66282;52.090;4.400;2022-12-26T14:44:43;2.85;;;0.77;;
31920;SDS011;66282;52.090;4.400;2022-12-26T14:51:43;4.93;;;0.80;;
31920;SDS011;66282;52.090;4.400;2022-12-26T14:56:50;4.28;;;1.00;;
31920;SDS011;66282;52.090;4.400;2022-12-26T15:01:46;2.58;;;0.55;;
31920;SDS011;66282;52.090;4.400;2022-12-26T15:04:24;1.92;;;0.77;;
31920;SDS011;66282;52.090;4.400;2022-12-26T15:19:40;1.90;;;0.50;;
31920;SDS011;66282;52.090;4.400;2022-12-26T15:24:49;1.95;;;0.65;;
31920;SDS011;66282;52.090;4.400;2022-12-26T15:27:25;2.15;;;0.80;;
31920;SDS011;66282;52.090;4.400;2022-12-26T15:32:59;2.95;;;0.70;;
31920;SDS011;66282;52.090;4.400;2022-12-26T15:35:44;1.70;;;0.80;;
31920;SDS011;66282;52.090;4.400;2022-12-26T15:38:16;4.20;;;0.82;;
31920;SDS011;66282;52.090;4.400;2022-12-26T15:43:24;2.77;;;0.70;;
31920;SDS011;66282;52.090;4.400;2022-12-26T16:01:44;1.75;;;0.57;;
31920;SDS011;66282;52.090;4.400;2022-12-26T16:12:25;2.92;;;0.55;;
31920;SDS011;66282;52.090;4.400;2022-12-26T16:17:25;1.00;;;0.60;;
31920;SDS011;66282;52.090;4.400;2022-12-26T16:19:52;2.00;;;0.80;;
31920;SDS011;66282;52.090;4.400;2022-12-26T16:25:01;2.28;;;0.57;;
31920;SDS011;66282;52.090;4.400;2022-12-26T16:27:27;1.77;;;0.60;;
31920;SDS011;66282;52.090;4.400;2022-12-26T16:29:55;2.97;;;0.90;;
31920;SDS011;66282;52.090;4.400;2022-12-26T16:32:21;2.80;;;0.90;;
31920;SDS011;66282;52.090;4.400;2022-12-26T16:34:48;1.40;;;0.65;;
31920;SDS011;66282;52.090;4.400;2022-12-26T16:37:17;4.45;;;0.60;;
31920;SDS011;66282;52.090;4.400;2022-12-26T16:39:43;1.77;;;0.50;;
31920;SDS011;66282;52.090;4.400;2022-12-26T16:42:14;1.80;;;0.68;;
31920;SDS011;66282;52.090;4.400;2022-12-26T16:44:52;1.95;;;0.70;;
31920;SDS011;66282;52.090;4.400;2022-12-26T16:47:19;1.40;;;0.55;;
31920;SDS011;66282;52.090;4.400;2022-12-26T16:49:44;2.42;;;0.77;;
31920;SDS011;66282;52.090;4.400;2022-12-26T16:54:54;1.58;;;0.50;;
31920;SDS011;66282;52.090;4.400;2022-12-26T16:57:20;3.07;;;0.70;;
31920;SDS011;66282;52.090;4.400;2022-12-26T16:59:58;1.90;;;0.60;;
31920;SDS011;66282;52.090;4.400;2022-12-26T17:02:24;2.97;;;0.63;;
31920;SDS011;66282;52.090;4.400;2022-12-26T17:05:04;3.35;;;0.90;;
31920;SDS011;66282;52.090;4.400;2022-12-26T17:07:30;2.33;;;0.60;;
31920;SDS011;66282;52.090;4.400;2022-12-26T17:09:57;2.60;;;0.77;;
31920;SDS011;66282;52.090;4.400;2022-12-26T17:12:27;1.77;;;0.73;;
31920;SDS011;66282;52.090;4.400;2022-12-26T17:14:54;4.45;;;1.25;;
31920;SDS011;66282;52.090;4.400;2022-12-26T17:19:45;2.70;;;0.75;;
31920;SDS011;66282;52.090;4.400;2022-12-26T17:24:35;3.00;;;0.77;;
31920;SDS011;66282;52.090;4.400;2022-12-26T17:32:23;2.38;;;0.70;;
31920;SDS011;66282;52.090;4.400;2022-12-26T17:34:49;3.58;;;0.63;;
31920;SDS011;66282;52.090;4.400;2022-12-26T17:37:19;1.30;;;0.40;;
31920;SDS011;66282;52.090;4.400;2022-12-26T17:39:50;1.40;;;0.70;;
31920;SDS011;66282;52.090;4.400;2022-12-26T17:42:15;5.28;;;0.65;;
31920;SDS011;66282;52.090;4.400;2022-12-26T17:44:42;1.55;;;0.82;;
31920;SDS011;66282;52.090;4.400;2022-12-26T17:47:24;3.28;;;0.70;;
31920;SDS011;66282;52.090;4.400;2022-12-26T17:49:51;2.05;;;0.50;;
31920;SDS011;66282;52.090;4.400;2022-12-26T17:52:18;0.90;;;0.40;;
31920;SDS011;66282;52.090;4.400;2022-12-26T17:54:44;2.50;;;0.70;;
31920;SDS011;66282;52.090;4.400;2022-12-26T17:57:18;3.15;;;0.95;;
31920;SDS011;66282;52.090;4.400;2022-12-26T17:59:43;3.63;;;0.90;;
31920;SDS011;66282;52.090;4.400;2022-12-26T18:02:09;5.85;;;1.02;;
31920;SDS011;66282;52.090;4.400;2022-12-26T18:04:34;1.92;;;0.60;;
31920;SDS011;66282;52.090;4.400;2022-12-26T18:06:59;2.70;;;0.60;;
31920;SDS011;66282;52.090;4.400;2022-12-26T18:09:25;1.80;;;0.70;;
31920;SDS011;66282;52.090;4.400;2022-12-26T18:11:51;3.35;;;0.80;;
31920;SDS011;66282;52.090;4.400;2022-12-26T18:14:17;4.95;;;0.60;;
31920;SDS011;66282;52.090;4.400;2022-12-26T18:16:42;1.52;;;0.60;;
31920;SDS011;66282;52.090;4.400;2022-12-26T18:19:10;2.42;;;0.52;;
31920;SDS011;66282;52.090;4.400;2022-12-26T18:21:37;2.28;;;0.80;;
31920;SDS011;66282;52.090;4.400;2022-12-26T18:24:02;3.60;;;0.90;;
31920;SDS011;66282;52.090;4.400;2022-12-26T18:26:27;1.27;;;0.50;;
31920;SDS011;66282;52.090;4.400;2022-12-26T18:28:53;3.17;;;0.93;;
31920;SDS011;66282;52.090;4.400;2022-12-26T18:31:18;3.25;;;0.70;;
31920;SDS011;66282;52.090;4.400;2022-12-26T18:33:43;3.07;;;0.60;;
31920;SDS011;66282;52.090;4.400;2022-12-26T18:36:12;2.53;;;0.60;;
31920;SDS011;66282;52.090;4.400;2022-12-26T18:38:37;2.85;;;0.57;;
31920;SDS011;66282;52.090;4.400;2022-12-26T18:41:02;4.63;;;0.87;;
31920;SDS011;66282;52.090;4.400;2022-12-26T18:43:28;2.97;;;0.70;;
31920;SDS011;66282;52.090;4.400;2022-12-26T18:45:53;2.03;;;0.63;;
31920;SDS011;66282;52.090;4.400;2022-12-26T18:48:18;1.80;;;0.83;;
31920;SDS011;66282;52.090;4.400;2022-12-26T18:50:44;3.65;;;1.10;;
31920;SDS011;66282;52.090;4.400;2022-12-26T18:53:10;1.73;;;0.60;;
31920;SDS011;66282;52.090;4.400;2022-12-26T18:55:35;2.92;;;0.90;;
31920;SDS011;66282;52.090;4.400;2022-12-26T18:58:01;2.70;;;0.70;;
31920;SDS011;66282;52.090;4.400;2022-12-26T19:00:26;1.70;;;0.60;;
31920;SDS011;66282;52.090;4.400;2022-12-26T19:02:51;3.70;;;0.70;;